Time;durP1;ratioP1;P1;durP2;ratioP2;P2;SDS_P1;SDS_P2;PMS_P1;PMS_P2;Temp;Humidity;BMP_temperature;BMP_pressure;BME280_temperature;BME280_humidity;BME280_pressure;Samples;Min_cycle;Max_cycle;Signal;HPM_P1;HPM_P2
2022/01/29 00:00:35;;;;;;;49.90;23.75;;;;;;;6.06;81.68;102775.00;10500581;28;20072;-82
2022/01/29 00:06:24;;;;;;;51.08;22.27;;;;;;;6.07;81.84;102771.69;10484317;28;20061;-83
2022/01/29 00:11:29;;;;;;;53.75;22.45;;;;;;;6.08;81.66;102763.19;10500687;28;20049;-83
2022/01/29 00:16:30;;;;;;;50.42;22.27;;;;;;;6.10;81.73;102733.50;10526471;28;20040;-83
2022/01/29 00:21:32;;;;;;;54.92;23.13;;;;;;;5.97;81.97;102739.34;10536944;28;20476;-82
2022/01/29 00:26:34;;;;;;;50.50;21.52;;;;;;;6.09;81.58;102744.53;10527459;28;20548;-83
2022/01/29 00:31:35;;;;;;;48.95;21.92;;;;;;;6.01;82.36;102751.63;10540236;28;20086;-82
2022/01/29 00:36:37;;;;;;;52.35;22.00;;;;;;;6.12;82.27;102744.75;10540138;28;20040;-85
2022/01/29 00:41:38;;;;;;;57.58;23.00;;;;;;;6.13;82.40;102726.06;10488965;28;20065;-83
2022/01/29 00:46:41;;;;;;;66.85;22.85;;;;;;;6.07;82.14;102717.94;10505716;28;20048;-82
2022/01/29 00:51:43;;;;;;;56.42;23.92;;;;;;;6.07;83.16;102711.16;10491658;28;20441;-82
2022/01/29 00:56:44;;;;;;;52.63;21.48;;;;;;;5.98;83.38;102713.91;10541943;28;20098;-82
2022/01/29 01:01:46;;;;;;;48.20;22.17;;;;;;;5.95;83.97;102684.63;10548309;28;20093;-83
2022/01/29 01:06:50;;;;;;;52.92;23.85;;;;;;;5.98;84.73;102680.63;10530704;28;20041;-81
2022/01/29 01:11:54;;;;;;;56.78;22.02;;;;;;;5.78;85.41;102675.69;10488163;28;20046;-82
2022/01/29 01:16:56;;;;;;;51.65;22.40;;;;;;;5.87;86.16;102671.25;10487757;28;20087;-82
2022/01/29 01:21:58;;;;;;;55.33;22.90;;;;;;;5.83;86.38;102664.16;10488250;28;20048;-83
2022/01/29 01:26:59;;;;;;;56.25;22.40;;;;;;;5.78;86.85;102660.34;10476045;28;20410;-82
2022/01/29 01:33:01;;;;;;;48.70;20.80;;;;;;;5.76;87.61;102649.13;10504078;28;20094;-82
2022/01/29 01:38:15;;;;;;;50.78;22.85;;;;;;;5.83;86.95;102654.81;10501236;28;20392;-84
2022/01/29 01:43:16;;;;;;;49.05;20.60;;;;;;;5.84;86.64;102642.91;10449653;28;20060;-82
2022/01/29 01:48:18;;;;;;;46.10;21.02;;;;;;;5.83;87.09;102629.22;10489423;28;20052;-83
2022/01/29 01:53:19;;;;;;;53.30;21.88;;;;;;;5.84;86.79;102612.22;10485586;28;20051;-82
2022/01/29 01:58:21;;;;;;;55.08;22.77;;;;;;;5.89;86.64;102592.97;10503155;28;20044;-81
2022/01/29 02:03:23;;;;;;;56.38;22.88;;;;;;;5.97;86.79;102585.84;10522720;28;20522;-84
2022/01/29 02:08:25;;;;;;;60.50;25.30;;;;;;;5.94;87.08;102590.75;10544552;28;20044;-84
2022/01/29 02:13:28;;;;;;;56.45;24.92;;;;;;;5.93;86.89;102584.72;10497466;28;20056;-84
2022/01/29 02:18:30;;;;;;;66.05;25.02;;;;;;;5.91;87.26;102585.41;10512629;28;20509;-85
2022/01/29 02:23:31;;;;;;;61.25;25.75;;;;;;;6.01;87.45;102568.28;10540285;28;20131;-83
2022/01/29 02:28:33;;;;;;;53.00;23.08;;;;;;;5.87;87.89;102561.28;10522854;28;20127;-84
2022/01/29 02:33:40;;;;;;;57.60;24.55;;;;;;;6.00;87.59;102556.28;10524043;28;20131;-84
2022/01/29 02:38:42;;;;;;;54.28;24.50;;;;;;;6.00;87.27;102540.94;10554459;28;20044;-84
2022/01/29 02:43:48;;;;;;;59.40;23.92;;;;;;;6.08;87.67;102538.94;10518470;28;20134;-84
2022/01/29 02:48:52;;;;;;;59.20;24.20;;;;;;;6.05;88.30;102540.38;10516940;28;20036;-82
2022/01/29 02:53:55;;;;;;;61.03;22.98;;;;;;;6.13;88.32;102531.56;10479796;28;20139;-84
2022/01/29 02:58:57;;;;;;;48.45;22.25;;;;;;;6.01;88.01;102527.34;10527791;28;20105;-84
2022/01/29 03:03:59;;;;;;;49.53;21.40;;;;;;;6.05;88.55;102522.47;10483206;28;20163;-83
2022/01/29 03:09:02;;;;;;;43.17;20.30;;;;;;;5.98;89.16;102524.56;10493937;28;20119;-83
2022/01/29 03:14:04;;;;;;;41.65;19.85;;;;;;;6.03;88.83;102515.56;10458451;28;20139;-84
2022/01/29 03:19:05;;;;;;;40.00;20.30;;;;;;;5.99;89.30;102508.47;10475406;28;20511;-84
2022/01/29 03:24:07;;;;;;;37.47;18.27;;;;;;;5.98;89.24;102498.06;10474003;28;20486;-84
2022/01/29 03:29:09;;;;;;;43.05;19.88;;;;;;;6.07;89.07;102479.97;10507832;28;20128;-84
2022/01/29 03:34:10;;;;;;;43.60;19.05;;;;;;;6.01;89.44;102471.06;10473621;28;20061;-82
2022/01/29 03:39:14;;;;;;;39.95;19.38;;;;;;;6.09;88.80;102473.28;10513991;28;20040;-84
2022/01/29 03:44:16;;;;;;;41.88;19.45;;;;;;;6.14;89.04;102467.69;10480043;28;20068;-86
2022/01/29 03:49:17;;;;;;;42.67;18.60;;;;;;;6.18;89.07;102468.78;10508265;28;20048;-85
2022/01/29 03:54:19;;;;;;;38.55;18.60;;;;;;;6.18;89.17;102463.69;10486266;28;20135;-86
2022/01/29 03:59:20;;;;;;;38.45;18.45;;;;;;;6.21;88.94;102463.91;10482375;28;20650;-86
2022/01/29 04:04:22;;;;;;;30.13;16.48;;;;;;;6.20;88.98;102464.69;10473842;28;20128;-85
2022/01/29 04:09:23;;;;;;;36.20;17.13;;;;;;;6.13;89.07;102450.56;10505380;28;20163;-84
2022/01/29 04:14:31;;;;;;;32.70;17.10;;;;;;;6.15;89.02;102449.00;10474072;28;20040;-83
2022/01/29 04:19:37;;;;;;;33.50;16.88;;;;;;;6.23;88.96;102446.97;10524856;28;20032;-84
2022/01/29 04:24:38;;;;;;;33.40;16.58;;;;;;;6.29;88.81;102447.38;10509776;28;20131;-83
2022/01/29 04:29:53;;;;;;;34.35;16.38;;;;;;;6.25;88.89;102435.16;10480573;28;20139;-83
2022/01/29 04:34:57;;;;;;;33.08;16.85;;;;;;;6.31;88.75;102424.47;10485411;28;20078;-84
2022/01/29 04:39:59;;;;;;;36.10;18.05;;;;;;;6.38;88.92;102429.22;10501911;28;20090;-85
2022/01/29 04:45:01;;;;;;;38.08;18.23;;;;;;;6.40;89.36;102419.06;10503440;28;20117;-84
2022/01/29 04:50:03;;;;;;;40.15;19.05;;;;;;;6.35;89.69;102411.97;10501324;28;20094;-84
2022/01/29 04:55:05;;;;;;;41.55;18.38;;;;;;;6.39;89.37;102401.94;10517927;28;20094;-85
2022/01/29 05:00:19;;;;;;;39.20;18.98;;;;;;;6.39;89.34;102399.38;10503887;28;20049;-84
2022/01/29 05:05:22;;;;;;;48.72;20.52;;;;;;;6.44;89.77;102405.72;10503175;28;20052;-86
2022/01/29 05:10:23;;;;;;;51.45;21.20;;;;;;;6.40;90.34;102396.03;10507164;28;20477;-85
2022/01/29 05:31:11;;;;;;;56.85;23.55;;;;;;;6.50;90.30;102365.16;10513014;28;20040;-84
2022/01/29 05:36:13;;;;;;;60.22;23.90;;;;;;;6.62;90.48;102373.63;10478892;28;20051;-84
2022/01/29 05:41:16;;;;;;;57.95;24.98;;;;;;;6.62;90.60;102363.38;10505403;28;20507;-83
2022/01/29 05:46:17;;;;;;;63.33;25.15;;;;;;;6.62;90.78;102363.38;10488633;28;20039;-84
2022/01/29 05:51:19;;;;;;;63.08;25.35;;;;;;;6.70;90.05;102368.13;10479565;28;20147;-83
2022/01/29 05:56:21;;;;;;;71.25;27.17;;;;;;;6.76;89.94;102355.69;10498649;28;20076;-84
2022/01/29 06:01:22;;;;;;;65.95;25.65;;;;;;;6.73;89.98;102352.97;10516838;28;20128;-85
2022/01/29 06:06:24;;;;;;;63.58;23.67;;;;;;;6.79;90.28;102337.97;10481027;28;20053;-85
2022/01/29 06:11:26;;;;;;;80.13;26.63;;;;;;;6.89;89.98;102340.31;10491080;28;20471;-84
2022/01/29 06:16:27;;;;;;;64.13;26.05;;;;;;;6.77;90.06;102335.34;10501128;28;20106;-85
2022/01/29 06:21:29;;;;;;;72.97;25.65;;;;;;;6.88;90.23;102335.09;10514224;28;20139;-84
2022/01/29 06:26:31;;;;;;;64.10;26.20;;;;;;;6.92;90.38;102320.03;10491509;28;20149;-84
2022/01/29 06:31:35;;;;;;;78.10;26.98;;;;;;;6.92;90.90;102325.16;10507057;28;20052;-85
2022/01/29 06:36:37;;;;;;;64.97;26.75;;;;;;;7.06;89.94;102327.69;10491509;28;20097;-86
2022/01/29 06:41:38;;;;;;;65.72;24.88;;;;;;;7.02;90.01;102320.63;10527890;28;20064;-82
2022/01/29 06:46:40;;;;;;;71.70;27.10;;;;;;;7.14;89.97;102311.13;10486943;28;20139;-85
2022/01/29 06:51:42;;;;;;;73.15;26.33;;;;;;;7.27;89.77;102307.66;10476176;28;20143;-87
2022/01/29 06:56:43;;;;;;;74.03;27.63;;;;;;;7.31;89.66;102289.09;10487887;28;20175;-87
2022/01/29 07:01:45;;;;;;;73.35;26.15;;;;;;;7.32;89.18;102290.00;10492156;28;20067;-83
2022/01/29 07:06:46;;;;;;;70.63;26.55;;;;;;;7.41;89.57;102295.72;10492663;28;20047;-85
2022/01/29 07:11:54;;;;;;;63.42;25.90;;;;;;;7.46;89.88;102287.47;10492979;28;20068;-87
2022/01/29 07:16:56;;;;;;;63.10;25.00;;;;;;;7.55;89.62;102274.34;10481683;28;20127;-85
2022/01/29 07:21:57;;;;;;;73.47;24.95;;;;;;;7.65;89.04;102274.88;10498911;28;20517;-85
2022/01/29 07:26:59;;;;;;;55.83;22.65;;;;;;;7.70;89.07;102273.50;10503425;28;20452;-83
2022/01/29 07:32:02;;;;;;;59.17;25.73;;;;;;;7.75;88.38;102256.69;10479947;28;20046;-81
2022/01/29 07:37:03;;;;;;;66.75;24.58;;;;;;;7.80;88.00;102260.41;10483796;28;20151;-84
2022/01/29 07:42:05;;;;;;;63.00;25.63;;;;;;;7.87;88.21;102265.09;10506143;28;20725;-83
2022/01/29 07:47:07;;;;;;;61.25;24.00;;;;;;;7.84;88.42;102271.72;10479910;28;20555;-85
2022/01/29 07:52:09;;;;;;;50.80;22.88;;;;;;;7.85;88.86;102264.16;10511985;28;20600;-83
2022/01/29 07:57:10;;;;;;;56.50;22.45;;;;;;;7.92;89.37;102261.16;10491286;28;20072;-83
2022/01/29 08:02:12;;;;;;;51.92;23.20;;;;;;;7.93;89.10;102256.88;10514795;28;20139;-83
2022/01/29 08:07:13;;;;;;;48.78;21.45;;;;;;;7.90;89.09;102256.69;10512148;28;20047;-85
2022/01/29 08:12:15;;;;;;;53.63;22.13;;;;;;;7.98;89.21;102257.16;10489398;28;20036;-85
2022/01/29 08:17:17;;;;;;;50.83;23.08;;;;;;;8.01;89.66;102252.19;10481424;28;20040;-84
2022/01/29 08:22:18;;;;;;;50.80;21.70;;;;;;;8.09;89.25;102249.28;10513607;28;20097;-85
2022/01/29 08:27:20;;;;;;;48.88;21.27;;;;;;;8.13;88.88;102252.91;10513354;28;20075;-80
2022/01/29 08:32:22;;;;;;;46.92;20.33;;;;;;;8.13;89.19;102240.06;10514475;28;20496;-82
2022/01/29 08:37:24;;;;;;;46.20;20.27;;;;;;;8.11;89.04;102228.84;10499120;28;20072;-83
2022/01/29 08:42:25;;;;;;;45.05;19.83;;;;;;;8.18;89.24;102218.13;10496747;28;20058;-80
2022/01/29 08:47:27;;;;;;;44.80;19.80;;;;;;;8.17;89.31;102216.34;10484838;28;20352;-83
2022/01/29 08:52:30;;;;;;;44.85;19.40;;;;;;;8.29;88.83;102210.16;10517008;28;20086;-83
2022/01/29 08:57:32;;;;;;;37.60;18.20;;;;;;;8.31;88.99;102203.38;10516623;28;20400;-84
2022/01/29 09:02:34;;;;;;;41.80;17.75;;;;;;;8.45;88.95;102192.19;10494999;28;20303;-84
2022/01/29 09:07:35;;;;;;;34.67;18.33;;;;;;;8.47;89.01;102190.63;10502661;28;20476;-83
2022/01/29 09:12:37;;;;;;;35.75;16.75;;;;;;;8.49;89.01;102173.63;10505797;28;20064;-84
2022/01/29 09:17:39;;;;;;;32.10;17.23;;;;;;;8.66;88.60;102171.13;10498824;28;20432;-82
2022/01/29 09:22:41;;;;;;;32.53;15.43;;;;;;;8.72;88.57;102174.00;10467806;28;20507;-83
2022/01/29 09:27:42;;;;;;;35.65;16.00;;;;;;;8.71;88.85;102169.66;10490659;28;20506;-83
2022/01/29 09:32:44;;;;;;;25.90;14.35;;;;;;;8.89;89.06;102178.38;10509643;28;20373;-84
2022/01/29 09:37:49;;;;;;;29.85;14.07;;;;;;;8.88;89.13;102173.13;10478318;28;20127;-84
2022/01/29 09:42:52;;;;;;;26.25;12.57;;;;;;;8.94;89.02;102175.16;10506910;28;20044;-82
2022/01/29 09:48:01;;;;;;;21.70;12.30;;;;;;;8.94;89.71;102172.59;10496558;28;20119;-82
2022/01/29 09:53:04;;;;;;;25.02;12.43;;;;;;;8.93;89.45;102173.38;10460798;28;20048;-83
2022/01/29 09:58:06;;;;;;;23.33;13.10;;;;;;;8.88;89.28;102162.84;10516912;28;20044;-85
2022/01/29 10:03:10;;;;;;;20.55;12.48;;;;;;;9.01;89.28;102159.25;10480644;28;20347;-82
2022/01/29 10:08:13;;;;;;;23.73;13.50;;;;;;;9.05;88.87;102154.34;10473551;28;20032;-81
2022/01/29 10:13:26;;;;;;;23.90;13.27;;;;;;;9.12;88.52;102137.53;10493794;28;20063;-81
2022/01/29 10:18:30;;;;;;;23.17;12.95;;;;;;;9.10;88.24;102139.16;10482003;28;20133;-82
2022/01/29 10:23:33;;;;;;;22.80;13.55;;;;;;;9.19;88.40;102124.22;10497003;28;20134;-81
2022/01/29 10:28:35;;;;;;;25.50;13.27;;;;;;;9.28;87.76;102130.63;10472326;28;20588;-81
2022/01/29 10:33:38;;;;;;;23.40;14.10;;;;;;;9.30;87.17;102105.88;10506422;28;20535;-82
2022/01/29 10:38:39;;;;;;;20.90;12.57;;;;;;;9.40;86.48;102097.81;10517852;28;20538;-83
2022/01/29 10:44:20;;;;;;;21.73;12.85;;;;;;;9.39;86.52;102088.34;10498422;28;20148;-82
2022/01/29 10:49:29;;;;;;;24.63;12.07;;;;;;;9.45;86.16;102086.06;10497802;28;20187;-81
2022/01/29 10:54:37;;;;;;;20.75;10.43;;;;;;;9.48;85.33;102075.94;10474510;28;20322;-81
2022/01/29 10:59:50;;;;;;;19.25;9.63;;;;;;;9.56;84.73;102058.28;10465253;28;20526;-82
2022/01/29 11:04:51;;;;;;;19.58;10.23;;;;;;;9.62;84.65;102042.28;10468304;28;20098;-82
2022/01/29 11:09:53;;;;;;;14.88;8.35;;;;;;;9.75;83.80;102043.75;10509446;28;20086;-82
2022/01/29 11:15:02;;;;;;;15.52;7.75;;;;;;;9.89;82.89;102041.81;10482169;28;20070;-81
2022/01/29 11:20:05;;;;;;;13.85;6.90;;;;;;;10.02;82.40;102039.00;10478388;28;20040;-81
2022/01/29 11:25:10;;;;;;;12.20;6.82;;;;;;;10.07;82.03;102026.34;10480223;28;20040;-82
2022/01/29 11:30:14;;;;;;;13.50;6.00;;;;;;;10.05;81.98;102013.41;10511350;28;20191;-82
2022/01/29 11:35:28;;;;;;;9.45;5.47;;;;;;;10.05;81.83;102012.53;10496593;28;20032;-81
2022/01/29 11:40:54;;;;;;;9.77;4.63;;;;;;;10.09;80.79;102004.97;10467073;28;20078;-81
2022/01/29 11:46:04;;;;;;;8.63;4.13;;;;;;;10.09;80.21;102007.56;10477170;28;20037;-82
2022/01/29 11:51:07;;;;;;;;;;;;;;;10.19;80.34;101995.09;10471943;28;20044;-81
2022/01/29 11:56:25;;;;;;;6.50;4.00;;;;;;;10.26;79.97;101992.91;10488954;28;20038;-81
2022/01/29 12:01:31;;;;;;;8.10;4.13;;;;;;;10.28;79.66;102000.69;10490034;28;20534;-81
2022/01/29 12:06:38;;;;;;;8.32;3.42;;;;;;;10.36;79.68;101989.03;10487546;28;20052;-82
2022/01/29 12:11:42;;;;;;;12.80;3.67;;;;;;;10.37;79.19;101970.22;10469182;28;20076;-82
2022/01/29 12:16:57;;;;;;;6.75;3.42;;;;;;;10.51;79.67;101975.94;10471465;28;20456;-83
2022/01/29 12:22:00;;;;;;;7.32;3.30;;;;;;;10.46;79.14;101964.56;10510711;28;20056;-82
2022/01/29 12:27:03;;;;;;;9.55;3.25;;;;;;;10.43;79.15;101960.19;10548161;28;20040;-81
2022/01/29 12:32:05;;;;;;;10.88;3.10;;;;;;;10.45;78.94;101927.63;10516956;28;20054;-81
2022/01/29 12:37:13;;;;;;;7.68;2.78;;;;;;;10.50;79.07;101919.22;10472173;28;20048;-81
2022/01/29 12:47:29;;;;;;;9.35;2.45;;;;;;;10.61;78.72;101902.53;10493891;28;20139;-82
2022/01/29 12:52:32;;;;;;;10.60;2.65;;;;;;;10.61;78.20;101907.69;10468589;28;20061;-83
2022/01/29 12:57:41;;;;;;;7.63;2.17;;;;;;;10.61;78.54;101875.03;10478944;28;20052;-83
2022/01/29 13:02:43;;;;;;;7.80;2.40;;;;;;;10.63;78.26;101887.97;10499678;28;20053;-82
2022/01/29 13:07:46;;;;;;;9.80;2.13;;;;;;;10.70;78.07;101905.47;10496910;28;20059;-82
2022/01/29 13:12:48;;;;;;;11.00;2.72;;;;;;;10.62;77.94;101912.88;10496854;28;20040;-82
2022/01/29 13:17:50;;;;;;;6.95;2.65;;;;;;;10.52;78.52;101896.97;10493838;28;20140;-81
2022/01/29 13:22:52;;;;;;;4.40;2.13;;;;;;;10.53;78.57;101888.44;10484098;28;20071;-80
2022/01/29 13:28:05;;;;;;;5.32;2.60;;;;;;;10.50;78.44;101896.03;10480510;28;20052;-82
2022/01/29 13:33:06;;;;;;;5.63;2.20;;;;;;;10.54;78.94;101880.75;10477150;28;20131;-81
2022/01/29 13:38:09;;;;;;;7.95;2.10;;;;;;;10.56;78.46;101886.88;10475001;28;20186;-81
2022/01/29 13:43:14;;;;;;;4.82;2.13;;;;;;;10.47;78.49;101869.31;10503305;28;20067;-81
2022/01/29 13:48:16;;;;;;;7.13;2.58;;;;;;;10.53;78.72;101876.41;10494833;28;20407;-80
2022/01/29 13:53:19;;;;;;;11.75;2.35;;;;;;;10.52;78.45;101876.38;10530471;28;20123;-82
2022/01/29 13:58:23;;;;;;;8.50;3.05;;;;;;;10.61;78.62;101877.63;10535547;28;20036;-82
2022/01/29 14:03:51;;;;;;;11.80;3.00;;;;;;;10.56;78.38;101873.09;10492298;28;20527;-80
2022/01/29 14:09:21;;;;;;;7.90;2.60;;;;;;;10.68;78.27;101886.50;10479660;28;20521;-82
2022/01/29 14:14:25;;;;;;;9.07;2.40;;;;;;;10.57;78.37;101890.31;10500047;28;20052;-81
2022/01/29 14:19:28;;;;;;;9.63;2.88;;;;;;;10.57;78.78;101869.69;10500965;28;20135;-80
2022/01/29 14:24:30;;;;;;;8.88;2.78;;;;;;;10.55;79.57;101886.78;10515578;28;20136;-80
2022/01/29 14:29:34;;;;;;;7.20;2.75;;;;;;;10.48;79.74;101890.81;10506769;28;20479;-81
2022/01/29 14:34:52;;;;;;;8.05;3.13;;;;;;;10.48;80.11;101886.53;10475238;28;20048;-80
2022/01/29 14:39:54;;;;;;;13.27;3.35;;;;;;;10.44;80.62;101864.03;10480319;28;20040;-81
2022/01/29 14:44:55;;;;;;;8.00;3.38;;;;;;;10.46;80.60;101887.28;10480261;28;20059;-80
2022/01/29 14:49:58;;;;;;;6.68;3.25;;;;;;;10.49;80.57;101859.09;10487914;28;20127;-81
2022/01/29 14:54:59;;;;;;;8.07;3.13;;;;;;;10.54;80.01;101864.41;10493112;28;20491;-81
2022/01/29 15:00:04;;;;;;;6.70;2.78;;;;;;;10.62;79.31;101873.34;10482964;28;20082;-82
2022/01/29 15:05:06;;;;;;;8.57;3.33;;;;;;;10.65;78.93;101855.44;10500022;28;20040;-81
2022/01/29 15:10:08;;;;;;;4.68;2.50;;;;;;;10.54;78.93;101839.53;10474406;28;20094;-82
2022/01/29 15:15:10;;;;;;;7.10;2.47;;;;;;;10.60;78.79;101808.84;10508946;28;20102;-82
2022/01/29 15:20:11;;;;;;;8.57;2.80;;;;;;;10.61;78.27;101831.22;10474564;28;20045;-81
2022/01/29 15:25:13;;;;;;;7.15;2.22;;;;;;;10.56;78.82;101844.75;10468692;28;20052;-82
2022/01/29 15:30:18;;;;;;;8.55;2.60;;;;;;;10.64;78.22;101848.50;10472638;28;20407;-81
2022/01/29 15:35:21;;;;;;;7.97;2.53;;;;;;;10.62;78.08;101842.41;10485049;28;20135;-81
2022/01/29 15:40:24;;;;;;;10.40;2.83;;;;;;;10.63;77.69;101859.63;10493041;28;20053;-82
2022/01/29 15:45:26;;;;;;;6.60;2.00;;;;;;;10.68;77.93;101878.75;10504833;28;20067;-82
2022/01/29 15:50:27;;;;;;;6.60;1.70;;;;;;;10.72;77.41;101875.47;10493056;28;20072;-81
2022/01/29 15:55:29;;;;;;;4.53;1.88;;;;;;;10.74;77.28;101873.84;10487525;28;20132;-81
2022/01/29 16:00:38;;;;;;;9.48;1.92;;;;;;;10.75;76.83;101880.78;10477603;28;20049;-82
2022/01/29 16:05:39;;;;;;;7.45;2.15;;;;;;;10.81;76.83;101879.25;10498170;28;20044;-81
2022/01/29 16:10:45;;;;;;;6.28;1.83;;;;;;;10.83;76.17;101883.66;10512840;28;20032;-81
2022/01/29 16:15:48;;;;;;;7.70;1.88;;;;;;;10.88;75.61;101892.44;10518632;28;20558;-81
2022/01/29 16:20:49;;;;;;;7.68;1.60;;;;;;;10.86;75.52;101890.63;10484706;28;20078;-82
2022/01/29 16:25:51;;;;;;;6.30;1.25;;;;;;;10.93;75.35;101910.69;10484505;28;20511;-82
2022/01/29 16:30:52;;;;;;;8.35;2.25;;;;;;;11.08;74.51;101919.03;10463924;28;20098;-81
2022/01/29 16:35:54;;;;;;;6.88;1.60;;;;;;;10.93;74.55;101910.69;10513224;28;20080;-82
2022/01/29 16:41:09;;;;;;;7.53;1.60;;;;;;;11.02;74.32;101910.19;10473444;28;20446;-81
2022/01/29 16:46:11;;;;;;;11.70;2.80;;;;;;;11.05;74.47;101918.03;10496600;28;20040;-81
2022/01/29 16:51:13;;;;;;;10.40;1.83;;;;;;;10.92;75.18;101899.50;10486521;28;20439;-82
2022/01/29 16:56:15;;;;;;;11.68;2.15;;;;;;;11.00;74.86;101915.25;10488394;28;20048;-82
2022/01/29 17:01:17;;;;;;;12.05;1.80;;;;;;;11.15;71.18;101933.06;10520588;28;20236;-83
2022/01/29 17:06:19;;;;;;;11.52;1.70;;;;;;;11.09;73.67;101949.16;10491359;28;20052;-81
2022/01/29 17:11:33;;;;;;;12.38;1.92;;;;;;;11.09;74.29;101949.16;10494107;28;20101;-83
2022/01/29 17:16:34;;;;;;;7.25;1.90;;;;;;;10.98;74.19;101965.91;10518367;28;20067;-83
2022/01/29 17:21:36;;;;;;;9.55;1.70;;;;;;;11.00;73.73;101974.56;10528373;28;20518;-81
2022/01/29 17:26:37;;;;;;;10.00;1.63;;;;;;;11.08;72.18;102004.13;10518498;28;20060;-81
2022/01/29 17:31:39;;;;;;;9.68;1.90;;;;;;;11.16;70.20;102001.00;10494624;28;20049;-81
2022/01/29 17:36:41;;;;;;;10.13;1.88;;;;;;;11.31;64.95;102016.25;10533612;28;20044;-83
2022/01/29 17:41:44;;;;;;;10.18;1.80;;;;;;;11.25;65.57;102011.69;10499039;28;20044;-81
2022/01/29 17:46:45;;;;;;;19.02;2.60;;;;;;;11.32;65.31;102013.72;10481215;28;20052;-83
2022/01/29 17:51:48;;;;;;;8.35;1.77;;;;;;;11.10;66.17;102018.00;10518944;28;20036;-83
2022/01/29 17:56:51;;;;;;;15.98;2.85;;;;;;;11.14;65.13;102028.41;10512567;28;20171;-82
2022/01/29 18:01:53;;;;;;;17.33;2.25;;;;;;;11.05;64.17;102050.44;10496969;28;20458;-82
2022/01/29 18:06:54;;;;;;;20.45;2.53;;;;;;;10.91;63.19;102064.44;10503882;28;20403;-81
2022/01/29 18:12:16;;;;;;;14.82;2.90;;;;;;;10.90;63.04;102091.06;10476100;28;20131;-80
2022/01/29 18:17:19;;;;;;;13.63;3.03;;;;;;;10.58;63.17;102099.09;10518589;28;20044;-83
2022/01/29 18:22:21;;;;;;;21.35;3.75;;;;;;;10.39;63.77;102106.81;10504767;28;20495;-81
2022/01/29 18:27:26;;;;;;;18.20;2.20;;;;;;;10.22;62.99;102124.91;10517442;28;20052;-81
2022/01/29 18:32:46;;;;;;;18.83;2.45;;;;;;;10.00;61.71;102129.03;10516778;28;20403;-81
2022/01/29 18:37:48;;;;;;;20.27;2.75;;;;;;;9.94;60.47;102128.75;10517243;28;20097;-81
2022/01/29 18:42:50;;;;;;;16.90;2.53;;;;;;;9.70;61.45;102143.88;10516705;28;20040;-81
2022/01/29 18:47:53;;;;;;;16.95;2.55;;;;;;;9.66;61.00;102148.00;10505006;28;20056;-83
2022/01/29 18:52:56;;;;;;;18.92;3.50;;;;;;;9.53;61.06;102151.63;10497360;28;20064;-81
2022/01/29 18:57:59;;;;;;;21.70;2.72;;;;;;;9.40;61.69;102172.41;10468870;28;20068;-82
2022/01/29 19:03:04;;;;;;;15.27;3.03;;;;;;;9.33;61.59;102167.75;10470323;28;20472;-81
2022/01/29 19:08:08;;;;;;;17.52;2.78;;;;;;;9.30;62.41;102175.31;10492967;28;20385;-81
2022/01/29 19:13:10;;;;;;;28.80;3.50;;;;;;;9.08;62.84;102192.19;10480814;28;20129;-81
2022/01/29 19:18:13;;;;;;;21.67;3.22;;;;;;;9.18;62.76;102185.84;10460439;28;20083;-83
2022/01/29 19:23:19;;;;;;;22.23;3.30;;;;;;;9.05;62.87;102202.28;10481734;28;20044;-80
2022/01/29 19:28:20;;;;;;;26.00;3.05;;;;;;;9.11;62.46;102197.50;10465227;28;20499;-80
2022/01/29 19:33:23;;;;;;;17.50;2.88;;;;;;;8.82;64.50;102181.41;10480701;28;20069;-81
2022/01/29 19:38:24;;;;;;;23.58;3.03;;;;;;;8.90;63.90;102202.38;10482855;28;20055;-83
2022/01/29 19:43:26;;;;;;;16.33;3.80;;;;;;;8.73;64.47;102215.19;10469674;28;20058;-82
2022/01/29 19:48:28;;;;;;;29.08;6.25;;;;;;;8.85;63.62;102222.69;10476082;28;20052;-81
2022/01/29 19:53:29;;;;;;;22.63;3.60;;;;;;;8.93;62.97;102237.63;10489715;28;20040;-81
2022/01/29 19:58:31;;;;;;;30.13;3.38;;;;;;;8.78;63.49;102217.16;10500045;28;20122;-80
2022/01/29 20:03:32;;;;;;;18.15;3.00;;;;;;;8.75;63.02;102212.69;10491368;28;20044;-81
2022/01/29 20:08:38;;;;;;;20.67;4.05;;;;;;;8.71;63.66;102227.06;10474050;28;20047;-81
2022/01/29 20:13:40;;;;;;;25.13;3.08;;;;;;;8.66;63.25;102243.06;10471857;28;20115;-82
2022/01/29 20:18:41;;;;;;;21.58;2.90;;;;;;;8.69;63.17;102238.97;10487047;28;20132;-80
2022/01/29 20:23:44;;;;;;;19.23;2.75;;;;;;;8.55;63.90;102233.06;10473835;28;20376;-81
2022/01/29 20:28:49;;;;;;;20.77;2.90;;;;;;;8.58;63.24;102255.44;10457946;28;20052;-81
2022/01/29 20:33:54;;;;;;;19.60;2.45;;;;;;;8.40;63.27;102275.81;10474806;28;20127;-80
2022/01/29 20:39:09;;;;;;;12.77;2.10;;;;;;;8.41;63.18;102277.59;10481248;28;20043;-81
2022/01/29 20:44:11;;;;;;;12.32;2.15;;;;;;;8.50;62.48;102267.88;10482453;28;20040;-81
2022/01/29 20:49:13;;;;;;;21.52;2.85;;;;;;;8.41;63.01;102282.72;10469454;28;20041;-80
2022/01/29 20:54:15;;;;;;;18.90;2.80;;;;;;;8.36;63.49;102295.31;10490451;28;20127;-82
2022/01/29 20:59:17;;;;;;;11.40;3.00;;;;;;;8.29;64.04;102298.31;10472922;28;20052;-83
2022/01/29 21:04:21;;;;;;;15.63;2.15;;;;;;;8.44;63.57;102303.47;10480829;28;20500;-81
2022/01/29 21:09:26;;;;;;;19.02;2.75;;;;;;;8.20;63.99;102318.31;10499286;28;20116;-81
2022/01/29 21:14:27;;;;;;;19.25;2.40;;;;;;;8.28;63.11;102326.47;10495786;28;20496;-81
2022/01/29 21:19:29;;;;;;;16.30;2.97;;;;;;;8.24;63.46;102325.41;10474820;28;20106;-81
2022/01/29 21:24:30;;;;;;;18.65;3.08;;;;;;;8.15;63.13;102320.66;10487745;28;20059;-81
2022/01/29 21:29:32;;;;;;;16.88;2.42;;;;;;;8.09;62.65;102336.56;10475717;28;20164;-81
2022/01/29 21:34:36;;;;;;;15.80;2.50;;;;;;;7.93;63.47;102327.03;10494113;28;20079;-81
2022/01/29 21:39:39;;;;;;;17.05;2.00;;;;;;;7.90;63.40;102325.97;10511748;28;20473;-85
2022/01/29 21:44:41;;;;;;;16.90;2.45;;;;;;;7.90;62.96;102324.31;10509333;28;20463;-81
2022/01/29 21:49:42;;;;;;;19.45;2.33;;;;;;;7.89;63.60;102322.53;10479156;28;20123;-80
2022/01/29 21:54:44;;;;;;;18.00;2.38;;;;;;;7.89;63.52;102327.66;10512606;28;20062;-81
2022/01/29 21:59:47;;;;;;;17.60;2.88;;;;;;;7.82;64.05;102330.66;10504040;28;20441;-80
2022/01/29 22:04:48;;;;;;;21.67;2.85;;;;;;;7.82;64.13;102335.78;10519049;28;20045;-81
2022/01/29 22:09:50;;;;;;;17.42;2.40;;;;;;;7.75;65.01;102341.34;10497961;28;20481;-81
2022/01/29 22:14:53;;;;;;;15.13;2.67;;;;;;;7.72;64.71;102344.63;10490126;28;20044;-81
2022/01/29 22:20:15;;;;;;;15.85;2.58;;;;;;;7.61;64.83;102348.19;10477436;28;20083;-80
2022/01/29 22:25:17;;;;;;;21.25;2.60;;;;;;;7.49;64.97;102356.03;10509093;28;20467;-81
2022/01/29 22:30:18;;;;;;;20.20;2.80;;;;;;;7.55;64.49;102343.59;10498953;28;20064;-81
2022/01/29 22:35:20;;;;;;;15.02;2.30;;;;;;;7.47;64.16;102355.06;10486920;28;20064;-80
2022/01/29 22:40:23;;;;;;;27.00;3.30;;;;;;;7.41;64.78;102352.13;10484630;28;20051;-81
2022/01/29 22:45:25;;;;;;;23.50;3.03;;;;;;;7.19;66.96;102360.13;10470893;28;20091;-81
2022/01/29 22:50:26;;;;;;;23.33;2.90;;;;;;;7.25;66.89;102363.06;10487293;28;20163;-80
2022/01/29 22:55:28;;;;;;;23.70;3.22;;;;;;;7.24;66.72;102369.91;10508087;28;20484;-80
2022/01/29 23:00:32;;;;;;;16.98;3.13;;;;;;;7.22;66.77;102384.28;10501502;28;20098;-81
2022/01/29 23:05:38;;;;;;;26.13;3.33;;;;;;;7.24;66.10;102389.50;10495899;28;20074;-80
2022/01/29 23:11:12;;;;;;;16.63;2.70;;;;;;;7.16;66.36;102399.28;10542700;28;20368;-81
2022/01/29 23:16:05;;;;;;;21.08;2.90;;;;;;;7.13;66.75;102406.75;10533953;28;20139;-81
2022/01/29 23:26:42;;;;;;;23.98;3.20;;;;;;;7.11;65.50;102413.47;10507846;28;20150;-82
2022/01/29 23:31:44;;;;;;;22.25;4.15;;;;;;;6.97;64.98;102403.19;10477688;28;20040;-81